Time;durP1;ratioP1;P1;durP2;ratioP2;P2;SDS_P1;SDS_P2;PMS_P1;PMS_P2;Temp;Humidity;BMP_temperature;BMP_pressure;BME280_temperature;BME280_humidity;BME280_pressure;Samples;Min_cycle;Max_cycle;Signal;HPM_P1;HPM_P2
2022/01/31 00:03:22;;;;;;;18.10;4.00;;;;;;;1.71;74.55;99094.20;207150;1320;139665;-67
2022/01/31 00:08:26;;;;;;;8.20;2.30;;;;;;;1.67;74.43;99092.36;207296;1320;140287;-70
2022/01/31 00:13:36;;;;;;;9.70;4.10;;;;;;;1.63;74.78;99104.22;207693;1317;141285;-70
2022/01/31 00:18:41;;;;;;;10.20;3.20;;;;;;;1.62;74.66;99115.28;208342;1315;139862;-68
2022/01/31 00:23:45;;;;;;;12.30;2.70;;;;;;;1.60;74.64;99110.95;206916;1320;140404;-72
2022/01/31 00:28:49;;;;;;;10.80;3.00;;;;;;;1.55;74.54;99111.39;206956;1320;140767;-70
2022/01/31 00:33:57;;;;;;;5.50;2.40;;;;;;;1.49;74.82;99109.77;207975;1320;140901;-71
2022/01/31 00:39:02;;;;;;;10.60;4.30;;;;;;;1.44;74.88;99111.21;206838;1320;138602;-73
2022/01/31 00:44:20;;;;;;;26.90;4.50;;;;;;;1.42;74.74;99112.86;208474;1322;140392;-70
2022/01/31 00:54:37;;;;;;;7.10;2.10;;;;;;;1.41;75.01;99117.01;208577;1319;139942;-73
2022/01/31 00:59:43;;;;;;;19.60;6.00;;;;;;;1.39;74.80;99123.57;208080;1321;140932;-73
2022/01/31 01:04:46;;;;;;;13.50;2.30;;;;;;;1.37;74.99;99120.39;207876;1318;140699;-74
2022/01/31 01:09:58;;;;;;;8.90;2.80;;;;;;;1.38;74.78;99114.80;207285;1321;139283;-73
2022/01/31 01:15:01;;;;;;;11.40;3.00;;;;;;;1.34;75.08;99121.91;207475;1319;139231;-72
2022/01/31 01:20:08;;;;;;;6.90;2.90;;;;;;;1.29;74.82;99118.15;207750;1320;139586;-70
2022/01/31 01:25:16;;;;;;;12.50;2.80;;;;;;;1.25;74.91;99111.46;206996;1319;139567;-69
2022/01/31 01:30:20;;;;;;;15.70;4.00;;;;;;;1.19;74.81;99089.52;207215;1317;138811;-69
2022/01/31 01:35:30;;;;;;;13.70;3.40;;;;;;;1.10;75.19;99073.70;207083;1317;138589;-68
2022/01/31 01:40:35;;;;;;;8.80;2.30;;;;;;;1.01;74.92;99065.80;208185;1317;139825;-69
2022/01/31 01:45:41;;;;;;;15.70;3.80;;;;;;;0.87;74.94;99072.44;207498;1316;138916;-70
2022/01/31 01:50:43;;;;;;;15.50;3.60;;;;;;;0.76;74.96;99068.81;206990;1317;140080;-70
2022/01/31 01:55:47;;;;;;;9.90;2.30;;;;;;;0.66;75.10;99054.78;207453;1316;140077;-70
2022/01/31 02:01:01;;;;;;;13.50;3.30;;;;;;;0.57;75.34;99047.34;207681;1317;139595;-68
2022/01/31 02:06:20;;;;;;;8.50;2.40;;;;;;;0.51;75.58;99036.70;207436;1317;139377;-71
2022/01/31 02:11:22;;;;;;;18.30;2.30;;;;;;;0.45;75.50;99036.63;207853;1318;138991;-70
2022/01/31 02:16:28;;;;;;;9.70;5.30;;;;;;;0.40;75.44;99034.36;207250;1316;139424;-70
2022/01/31 02:21:30;;;;;;;13.90;4.00;;;;;;;0.38;75.71;99034.30;208283;1317;139297;-69
2022/01/31 02:26:34;;;;;;;14.20;2.80;;;;;;;0.34;75.82;99040.48;208340;1317;139250;-71
2022/01/31 02:31:37;;;;;;;7.40;1.90;;;;;;;0.28;75.92;99038.05;207702;1321;140757;-69
2022/01/31 02:36:46;;;;;;;16.10;4.10;;;;;;;0.29;76.04;99036.09;207933;1316;139243;-70
2022/01/31 02:41:52;;;;;;;15.20;3.40;;;;;;;0.29;76.26;99036.73;208105;1317;138959;-69
2022/01/31 02:47:00;;;;;;;11.20;5.30;;;;;;;0.26;76.14;99041.02;208349;1315;140820;-70
2022/01/31 02:52:05;;;;;;;6.90;2.20;;;;;;;0.21;76.28;99039.17;208673;1318;139203;-70
2022/01/31 02:57:14;;;;;;;11.70;3.90;;;;;;;0.19;76.06;99034.16;208131;1317;139306;-70
2022/01/31 03:02:21;;;;;;;13.40;3.10;;;;;;;0.14;76.41;99044.45;209064;1317;139393;-72
2022/01/31 03:07:30;;;;;;;11.00;2.20;;;;;;;0.14;76.28;99040.26;208532;1318;139569;-73
2022/01/31 03:12:33;;;;;;;14.40;3.40;;;;;;;0.18;76.42;99045.83;209270;1318;140254;-71
2022/01/31 03:17:43;;;;;;;15.50;4.20;;;;;;;0.21;76.51;99053.53;207285;1316;139399;-70
2022/01/31 03:22:47;;;;;;;4.50;2.50;;;;;;;0.24;76.65;99047.64;207900;1317;139338;-70
2022/01/31 03:27:50;;;;;;;9.70;1.90;;;;;;;0.25;76.74;99034.27;207282;1318;138833;-69
2022/01/31 03:33:19;;;;;;;6.00;2.50;;;;;;;0.26;76.63;99018.59;208566;1317;140535;-69
2022/01/31 03:38:23;;;;;;;14.10;3.30;;;;;;;0.26;76.72;99007.10;208083;1317;139295;-70
2022/01/31 03:43:29;;;;;;;17.00;6.20;;;;;;;0.23;76.53;98999.77;207839;1316;139349;-70
2022/01/31 03:48:33;;;;;;;13.20;2.40;;;;;;;0.22;76.52;99001.42;207377;1315;139885;-68
2022/01/31 03:53:50;;;;;;;11.90;3.20;;;;;;;0.19;76.84;98997.75;207042;1317;139167;-71
2022/01/31 03:58:53;;;;;;;9.50;3.20;;;;;;;0.15;76.98;98988.84;207820;1317;141251;-70
2022/01/31 04:03:56;;;;;;;6.60;1.60;;;;;;;0.12;76.89;98985.70;207317;1317;151897;-71
2022/01/31 04:09:05;;;;;;;16.30;3.20;;;;;;;0.10;76.79;98982.16;207233;1317;140229;-69
2022/01/31 04:14:09;;;;;;;10.90;3.80;;;;;;;0.06;77.00;98986.11;208115;1315;141415;-70
2022/01/31 04:19:12;;;;;;;8.90;2.00;;;;;;;0.02;76.91;98981.15;206926;1317;142649;-68
2022/01/31 04:24:21;;;;;;;10.90;2.40;;;;;;;-0.01;77.21;98976.66;207032;1317;139397;-70
2022/01/31 04:29:32;;;;;;;7.50;2.60;;;;;;;-0.02;77.08;98976.93;207583;1317;153639;-70
2022/01/31 04:34:45;;;;;;;13.20;4.60;;;;;;;-0.02;77.24;98966.70;207250;1317;140585;-67
2022/01/31 04:39:50;;;;;;;10.70;2.40;;;;;;;-0.02;77.26;98962.63;207925;1317;139288;-69
2022/01/31 04:44:57;;;;;;;7.10;2.60;;;;;;;0.03;77.19;98954.23;208842;1315;140693;-71
2022/01/31 04:50:07;;;;;;;16.80;3.60;;;;;;;0.07;77.23;98943.75;207492;1317;141190;-68
2022/01/31 04:55:12;;;;;;;6.60;2.80;;;;;;;0.07;77.36;98934.86;206832;1317;682589;-69
2022/01/31 05:00:31;;;;;;;12.50;3.00;;;;;;;0.09;77.34;98925.14;209438;1314;150941;-70
2022/01/31 05:05:33;;;;;;;9.20;2.40;;;;;;;0.13;77.11;98915.91;208947;1318;141413;-68
2022/01/31 05:10:43;;;;;;;11.50;2.60;;;;;;;0.15;77.19;98918.48;208261;1317;141267;-70
2022/01/31 05:15:59;;;;;;;10.00;2.30;;;;;;;0.17;77.11;98914.18;208400;1317;140056;-71
2022/01/31 05:21:05;;;;;;;11.40;3.20;;;;;;;0.20;77.18;98899.65;207801;1316;140939;-71
2022/01/31 05:26:08;;;;;;;10.90;2.90;;;;;;;0.24;76.86;98884.38;209115;1316;140201;-70
2022/01/31 05:31:11;;;;;;;9.10;1.90;;;;;;;0.21;76.88;98878.98;207749;1315;139937;-67
2022/01/31 05:36:14;;;;;;;4.10;2.30;;;;;;;0.19;77.28;98880.38;207091;1317;138929;-68
2022/01/31 05:41:19;;;;;;;14.50;3.60;;;;;;;0.17;77.05;98870.19;207287;1317;138568;-71
2022/01/31 05:46:23;;;;;;;16.70;3.30;;;;;;;0.11;77.01;98859.23;208349;1317;139807;-71
2022/01/31 05:51:27;;;;;;;16.90;5.50;;;;;;;0.08;77.01;98858.49;207271;1315;140111;-68
2022/01/31 05:56:30;;;;;;;15.70;8.10;;;;;;;0.08;77.00;98855.27;207179;1316;139057;-67
2022/01/31 06:01:38;;;;;;;17.20;5.00;;;;;;;0.01;76.98;98858.20;207757;1315;232240;-70
2022/01/31 06:06:42;;;;;;;6.20;2.60;;;;;;;-0.03;77.11;98852.34;206963;1316;139524;-68
2022/01/31 06:11:51;;;;;;;12.70;4.80;;;;;;;-0.01;77.07;98849.36;206992;1317;139210;-70
2022/01/31 06:16:55;;;;;;;16.60;4.10;;;;;;;-0.04;77.09;98850.06;207551;1315;138936;-70
2022/01/31 06:21:58;;;;;;;13.90;4.10;;;;;;;-0.10;77.15;98854.09;206875;1317;138743;-68
2022/01/31 06:27:00;;;;;;;19.40;5.00;;;;;;;-0.12;77.43;98853.17;207511;1317;139400;-74
2022/01/31 06:32:04;;;;;;;11.30;3.50;;;;;;;-0.12;77.22;98851.08;207543;1315;140644;-68
2022/01/31 06:37:11;;;;;;;19.00;5.60;;;;;;;-0.11;77.12;98854.07;207799;1317;139955;-70
2022/01/31 06:42:15;;;;;;;12.00;2.90;;;;;;;-0.08;77.45;98851.92;207353;1316;139679;-69
2022/01/31 06:47:28;;;;;;;14.00;5.30;;;;;;;-0.05;77.34;98844.09;208481;1316;139979;-68
2022/01/31 06:52:33;;;;;;;10.40;3.10;;;;;;;-0.01;77.52;98840.17;208939;1314;139858;-66
2022/01/31 06:57:36;;;;;;;12.70;3.80;;;;;;;0.07;77.24;98828.98;208738;1316;139979;-65
2022/01/31 07:02:39;;;;;;;12.40;3.80;;;;;;;0.21;77.05;98816.96;209108;1318;140162;-69
2022/01/31 07:07:42;;;;;;;14.40;4.40;;;;;;;0.27;77.10;98809.16;209181;1317;140653;-68
2022/01/31 07:12:51;;;;;;;8.70;3.30;;;;;;;0.32;77.10;98810.41;208843;1317;141014;-68
2022/01/31 07:17:54;;;;;;;19.50;4.50;;;;;;;0.36;77.08;98811.33;209163;1316;140894;-68
2022/01/31 07:23:02;;;;;;;14.60;4.60;;;;;;;0.41;76.91;98809.51;207751;1316;140313;-70
2022/01/31 07:28:10;;;;;;;8.30;2.70;;;;;;;0.51;76.77;98804.90;207722;1316;142249;-71
2022/01/31 07:33:13;;;;;;;17.00;4.00;;;;;;;0.61;76.82;98796.67;207844;1316;140229;-72
2022/01/31 07:38:17;;;;;;;6.90;3.10;;;;;;;0.66;76.81;98793.15;207789;1317;140809;-68
2022/01/31 07:43:19;;;;;;;11.50;2.80;;;;;;;0.74;76.63;98792.02;208016;1316;139494;-66
2022/01/31 07:48:25;;;;;;;15.10;4.40;;;;;;;0.85;76.46;98789.78;208466;1316;139988;-71
2022/01/31 07:53:38;;;;;;;36.80;14.30;;;;;;;0.92;76.38;98787.10;208814;1316;139935;-68
2022/01/31 07:58:41;;;;;;;22.60;4.80;;;;;;;0.93;76.44;98789.06;207947;1317;139257;-72
2022/01/31 08:03:47;;;;;;;19.10;5.30;;;;;;;0.98;76.55;98782.55;207575;1317;139598;-70
2022/01/31 08:08:50;;;;;;;8.80;4.00;;;;;;;1.06;76.31;98782.67;207671;1313;140562;-72
2022/01/31 08:13:59;;;;;;;14.40;5.00;;;;;;;1.16;76.14;98777.02;207829;1316;141293;-69
2022/01/31 08:19:05;;;;;;;14.90;4.80;;;;;;;1.21;76.29;98773.16;207390;1317;139624;-71
2022/01/31 08:24:27;;;;;;;16.20;5.50;;;;;;;1.27;76.34;98765.20;208346;1316;141898;-72
2022/01/31 08:29:35;;;;;;;17.30;4.10;;;;;;;1.33;76.01;98749.91;207496;1317;140593;-71
2022/01/31 08:40:01;;;;;;;16.50;4.90;;;;;;;1.51;75.96;98727.56;207602;1315;139859;-69
2022/01/31 08:45:13;;;;;;;10.90;3.70;;;;;;;1.60;75.70;98721.48;207932;1317;139596;-67
2022/01/31 08:50:16;;;;;;;14.20;5.60;;;;;;;1.71;75.67;98724.65;208024;1315;138971;-71
2022/01/31 08:55:20;;;;;;;14.20;4.40;;;;;;;1.81;75.60;98722.95;207368;1317;140306;-69
2022/01/31 09:00:34;;;;;;;13.70;4.30;;;;;;;1.87;75.45;98717.77;207315;1316;139677;-69
2022/01/31 09:05:39;;;;;;;17.80;4.00;;;;;;;1.91;75.27;98714.77;207371;1317;139626;-67
2022/01/31 09:10:43;;;;;;;12.60;4.00;;;;;;;1.93;75.31;98710.04;209361;1316;140055;-70
2022/01/31 09:15:53;;;;;;;15.50;5.50;;;;;;;1.98;75.27;98705.95;208922;1316;140292;-70
2022/01/31 09:21:13;;;;;;;18.90;4.90;;;;;;;2.04;74.83;98701.05;208402;1317;140175;-72
2022/01/31 09:26:20;;;;;;;21.10;5.50;;;;;;;2.17;74.86;98698.11;208541;1317;139402;-70
2022/01/31 09:31:24;;;;;;;19.30;3.80;;;;;;;2.31;74.81;98690.91;207458;1316;140282;-71
2022/01/31 09:36:27;;;;;;;14.70;5.90;;;;;;;2.41;74.59;98683.16;209001;1317;139579;-72
2022/01/31 09:41:32;;;;;;;12.40;4.30;;;;;;;2.53;74.42;98673.75;207278;1316;139407;-72
2022/01/31 09:52:09;;;;;;;15.90;5.80;;;;;;;2.70;74.23;98649.89;207435;1317;138672;-72
2022/01/31 09:57:19;;;;;;;19.50;7.70;;;;;;;2.75;74.22;98647.11;208252;1316;141142;-71
2022/01/31 10:02:21;;;;;;;21.70;6.60;;;;;;;2.77;74.12;98643.42;208031;1315;142368;-73
2022/01/31 10:07:41;;;;;;;15.90;7.60;;;;;;;2.81;73.90;98641.35;206766;1320;141006;-75
2022/01/31 10:18:00;;;;;;;16.10;6.20;;;;;;;2.89;74.08;98619.48;207295;1315;150811;-74
2022/01/31 10:23:11;;;;;;;17.20;5.90;;;;;;;2.88;73.86;98622.88;207090;1316;142902;-72
2022/01/31 10:28:18;;;;;;;10.90;4.00;;;;;;;2.78;73.82;98620.80;207220;1317;140865;-70
2022/01/31 10:33:29;;;;;;;17.70;6.10;;;;;;;2.62;73.98;98616.57;207655;1316;140563;-67
2022/01/31 10:38:37;;;;;;;18.60;5.60;;;;;;;2.46;73.35;98620.36;207351;1316;140369;-67
2022/01/31 10:59:07;;;;;;;15.10;5.50;;;;;;;2.50;74.08;98604.80;209006;1318;138746;-71
2022/01/31 11:04:14;;;;;;;18.90;4.70;;;;;;;2.56;74.08;98600.20;208861;1316;139528;-70
2022/01/31 11:09:19;;;;;;;11.30;3.80;;;;;;;2.73;73.87;98587.63;207938;1316;140829;-68
2022/01/31 11:14:22;;;;;;;19.80;4.70;;;;;;;2.87;73.54;98584.52;207660;1317;140746;-68
2022/01/31 11:19:33;;;;;;;10.70;4.80;;;;;;;2.96;73.34;98578.87;209124;1316;140409;-70
2022/01/31 11:24:58;;;;;;;14.10;4.00;;;;;;;3.03;73.43;98569.87;208774;1317;141443;-75
2022/01/31 11:30:04;;;;;;;19.20;4.70;;;;;;;3.16;72.69;98571.58;208813;1316;141854;-73
2022/01/31 11:35:07;;;;;;;17.60;4.30;;;;;;;3.22;72.55;98570.15;207868;1315;140635;-76
2022/01/31 11:40:13;;;;;;;13.60;4.10;;;;;;;3.28;72.34;98568.67;207852;1317;140208;-74
2022/01/31 11:45:39;;;;;;;21.30;5.20;;;;;;;3.34;72.10;98565.39;207252;1316;144358;-77
2022/01/31 11:50:47;;;;;;;7.10;3.30;;;;;;;3.37;72.21;98559.46;208003;1316;140609;-69
2022/01/31 11:56:09;;;;;;;12.00;3.50;;;;;;;3.37;71.95;98558.65;208399;1316;140222;-72
2022/01/31 12:01:12;;;;;;;13.00;3.70;;;;;;;3.38;71.67;98557.23;206926;1317;140113;-69
2022/01/31 12:06:25;;;;;;;14.30;6.70;;;;;;;3.33;71.68;98554.14;207794;1316;139000;-66
2022/01/31 12:11:53;;;;;;;19.40;6.50;;;;;;;3.31;72.04;98558.93;207482;1316;139675;-66
2022/01/31 12:17:21;;;;;;;22.50;6.40;;;;;;;3.37;71.94;98550.51;207163;1316;141404;-66
2022/01/31 12:22:51;;;;;;;13.00;4.30;;;;;;;3.40;71.68;98543.11;207439;1317;140341;-67
2022/01/31 12:28:17;;;;;;;17.20;4.90;;;;;;;3.35;71.61;98543.50;207732;1316;141347;-69
2022/01/31 12:33:49;;;;;;;12.80;3.90;;;;;;;3.30;71.31;98532.80;207328;1317;139756;-67
2022/01/31 12:38:54;;;;;;;15.10;4.90;;;;;;;3.19;71.31;98532.20;207090;1316;163469;-68
2022/01/31 12:44:39;;;;;;;10.50;4.90;;;;;;;3.04;71.39;98533.15;207061;1316;141073;-68
2022/01/31 12:49:44;;;;;;;18.10;6.10;;;;;;;2.93;71.83;98527.45;208770;1316;139751;-70
2022/01/31 12:54:53;;;;;;;11.30;5.00;;;;;;;2.87;71.69;98526.81;206684;1316;684637;-67
2022/01/31 13:00:00;;;;;;;17.70;6.70;;;;;;;2.81;71.63;98523.16;207615;1316;139860;-68
2022/01/31 13:05:03;;;;;;;16.60;5.90;;;;;;;2.81;72.03;98522.99;207236;1316;140873;-69
2022/01/31 13:10:16;;;;;;;16.60;5.10;;;;;;;2.78;71.61;98528.69;207743;1317;139567;-68
2022/01/31 13:15:22;;;;;;;24.30;7.80;;;;;;;2.83;72.09;98525.10;208187;1316;141127;-67
2022/01/31 13:20:31;;;;;;;16.90;6.70;;;;;;;2.89;72.07;98518.09;209513;1316;140225;-72
2022/01/31 13:25:45;;;;;;;24.10;5.70;;;;;;;2.98;72.07;98521.14;207800;1318;139356;-70
2022/01/31 13:30:52;;;;;;;8.50;4.30;;;;;;;3.07;71.94;98522.52;208774;1317;162219;-67
2022/01/31 13:36:21;;;;;;;19.70;5.40;;;;;;;3.13;71.63;98514.52;209219;1317;140032;-67
2022/01/31 13:41:26;;;;;;;9.30;4.80;;;;;;;3.17;71.49;98517.81;208998;1314;139948;-73
2022/01/31 13:46:40;;;;;;;21.60;6.20;;;;;;;3.23;71.38;98530.15;207970;1318;140675;-71
2022/01/31 13:51:49;;;;;;;16.90;7.30;;;;;;;3.23;70.98;98524.33;206950;1318;140874;-70
2022/01/31 13:56:55;;;;;;;13.50;4.50;;;;;;;3.21;71.47;98534.79;208340;1317;141344;-67
2022/01/31 14:02:26;;;;;;;18.20;5.50;;;;;;;3.16;71.29;98534.46;207804;1317;141189;-69
2022/01/31 14:07:31;;;;;;;10.70;4.60;;;;;;;3.11;71.25;98539.40;207814;1316;139865;-71
2022/01/31 14:12:34;;;;;;;12.90;3.40;;;;;;;3.04;71.42;98538.38;207697;1315;140777;-76
2022/01/31 14:17:39;;;;;;;17.30;6.00;;;;;;;3.01;71.25;98534.23;207641;1316;141125;-68
2022/01/31 14:22:42;;;;;;;14.20;4.90;;;;;;;2.97;71.33;98534.42;207620;1316;141125;-72
2022/01/31 14:27:54;;;;;;;14.50;8.00;;;;;;;2.92;71.39;98532.92;208041;1316;139795;-67
2022/01/31 14:33:07;;;;;;;13.30;4.80;;;;;;;2.84;71.06;98529.61;206892;1317;139813;-68
2022/01/31 14:38:17;;;;;;;11.30;3.90;;;;;;;2.76;71.55;98529.73;207719;1316;139533;-71
2022/01/31 14:49:05;;;;;;;16.30;6.30;;;;;;;2.50;71.44;98540.27;207366;1316;140899;-68
2022/01/31 14:54:12;;;;;;;;;;;;;;;2.43;71.65;98541.58;207170;1318;140637;-71
2022/01/31 14:59:17;;;;;;;11.70;4.50;;;;;;;2.39;71.86;98547.91;207566;1317;129575;-70
2022/01/31 15:04:22;;;;;;;15.50;5.60;;;;;;;2.36;72.03;98553.91;207131;1316;140193;-69
2022/01/31 15:09:25;;;;;;;20.60;5.20;;;;;;;2.31;71.98;98550.48;206975;1317;139356;-67
2022/01/31 15:14:29;;;;;;;12.20;4.60;;;;;;;2.22;72.20;98548.83;207911;1316;140965;-66
2022/01/31 15:19:33;;;;;;;14.50;4.60;;;;;;;2.11;72.05;98546.45;207619;1316;140352;-69
2022/01/31 15:24:38;;;;;;;20.10;6.40;;;;;;;2.03;72.52;98549.09;208792;1315;139458;-69
2022/01/31 15:29:42;;;;;;;17.50;6.20;;;;;;;1.98;72.45;98555.05;209581;1317;141049;-72
2022/01/31 15:34:45;;;;;;;20.20;9.70;;;;;;;1.93;72.31;98560.00;209308;1316;140077;-72
2022/01/31 15:39:48;;;;;;;21.50;7.20;;;;;;;1.94;72.65;98560.88;208825;1316;139950;-70
2022/01/31 15:44:56;;;;;;;21.20;6.80;;;;;;;1.96;72.76;98556.02;208434;1317;141046;-67
2022/01/31 15:50:06;;;;;;;26.20;7.40;;;;;;;1.98;73.11;98554.52;208800;1314;139255;-68
2022/01/31 15:55:19;;;;;;;21.60;7.40;;;;;;;1.97;73.20;98551.33;208860;1317;139926;-73
2022/01/31 16:00:23;;;;;;;23.90;8.10;;;;;;;1.88;73.27;98567.13;208060;1316;140583;-70
2022/01/31 16:05:26;;;;;;;14.50;6.20;;;;;;;1.81;73.42;98572.30;207765;1316;141040;-68
2022/01/31 16:10:29;;;;;;;13.80;6.20;;;;;;;1.74;73.56;98573.77;207000;1317;139830;-74
2022/01/31 16:15:36;;;;;;;26.90;8.80;;;;;;;1.69;73.70;98574.54;207860;1316;139990;-70
2022/01/31 16:20:39;;;;;;;21.20;9.80;;;;;;;1.67;73.75;98576.36;208123;1316;143516;-69
2022/01/31 16:25:44;;;;;;;20.60;9.40;;;;;;;1.63;74.16;98579.48;207378;1316;141159;-72
2022/01/31 16:30:49;;;;;;;25.50;11.50;;;;;;;1.58;74.39;98585.55;207252;1316;139115;-67
2022/01/31 16:35:57;;;;;;;13.70;7.80;;;;;;;1.50;74.36;98575.02;207531;1316;139163;-68
2022/01/31 16:41:05;;;;;;;17.20;8.40;;;;;;;1.42;74.19;98577.59;207845;1315;140071;-67
2022/01/31 16:46:07;;;;;;;21.40;7.70;;;;;;;1.30;74.35;98588.94;207155;1315;140392;-68
2022/01/31 16:51:11;;;;;;;26.30;11.60;;;;;;;1.21;74.32;98595.90;208389;1316;139719;-74
2022/01/31 16:56:18;;;;;;;24.60;11.80;;;;;;;1.16;74.53;98599.06;207572;1317;151565;-73
2022/01/31 17:01:35;;;;;;;34.50;13.00;;;;;;;1.10;74.90;98603.98;207662;1317;139895;-74
2022/01/31 17:06:38;;;;;;;35.90;11.30;;;;;;;1.03;74.97;98602.16;208391;1316;140843;-72
2022/01/31 17:11:44;;;;;;;36.80;15.90;;;;;;;0.95;75.42;98605.68;207690;1316;140411;-79
2022/01/31 17:16:50;;;;;;;36.20;13.90;;;;;;;0.89;75.22;98608.94;207678;1316;140436;-74
2022/01/31 17:21:53;;;;;;;40.30;20.00;;;;;;;0.85;75.33;98606.70;207066;1316;139484;-72
2022/01/31 17:26:57;;;;;;;34.60;18.30;;;;;;;0.78;75.24;98606.65;207664;1317;139667;-76
2022/01/31 17:32:03;;;;;;;31.40;14.10;;;;;;;0.71;75.50;98605.66;207558;1316;139274;-67
2022/01/31 17:37:09;;;;;;;24.80;11.50;;;;;;;0.61;75.33;98614.60;208535;1317;159555;-67
2022/01/31 17:42:14;;;;;;;35.40;12.70;;;;;;;0.48;75.29;98614.40;206993;1316;139707;-67
2022/01/31 17:47:18;;;;;;;25.20;11.50;;;;;;;0.40;75.53;98631.43;209512;1316;139749;-71
2022/01/31 17:52:26;;;;;;;28.30;15.80;;;;;;;0.36;75.64;98639.20;208642;1316;139603;-67
2022/01/31 17:57:30;;;;;;;28.00;15.30;;;;;;;0.37;75.72;98641.91;209592;1313;140939;-73
2022/01/31 18:02:33;;;;;;;41.40;18.80;;;;;;;0.33;75.91;98645.56;208720;1317;140391;-74
2022/01/31 18:07:36;;;;;;;34.00;17.60;;;;;;;0.27;76.13;98650.35;208080;1316;139524;-77
2022/01/31 18:12:40;;;;;;;26.10;13.60;;;;;;;0.17;75.79;98652.44;207386;1315;139916;-84
2022/01/31 18:17:43;;;;;;;45.60;22.80;;;;;;;0.09;76.06;98656.34;206951;1316;139450;-75
2022/01/31 18:22:49;;;;;;;52.10;27.70;;;;;;;0.05;76.25;98664.20;206958;1316;139337;-75
2022/01/31 18:27:52;;;;;;;101.90;50.80;;;;;;;0.04;76.58;98676.15;208890;1315;141744;-72
2022/01/31 18:33:00;;;;;;;56.20;26.90;;;;;;;-0.03;76.57;98681.85;208422;1315;139393;-73
2022/01/31 18:38:06;;;;;;;;;;;;;;;-0.07;76.54;98686.29;207446;1317;140312;-72
2022/01/31 18:43:29;;;;;;;;;;;;;;;;;;;;;
2022/01/31 18:48:32;;;;;;;42.60;16.70;;;;;;;-0.19;76.85;98691.88;207153;1317;140415;-71
2022/01/31 18:53:47;;;;;;;41.20;16.60;;;;;;;-0.22;76.91;98700.52;207002;1316;139856;-69
2022/01/31 18:58:50;;;;;;;48.10;24.40;;;;;;;-0.22;76.92;98709.14;207751;1317;140330;-68
2022/01/31 19:03:55;;;;;;;41.00;21.20;;;;;;;-0.25;77.11;98717.83;208057;1315;140666;-72
2022/01/31 19:09:11;;;;;;;53.40;25.70;;;;;;;-0.30;77.50;98722.54;207008;1318;139157;-72
2022/01/31 19:14:24;;;;;;;54.20;22.80;;;;;;;-0.36;77.69;98724.97;208291;1317;139628;-72
2022/01/31 19:19:32;;;;;;;48.30;25.40;;;;;;;-0.42;77.17;98727.84;206965;1317;139151;-73
2022/01/31 19:24:35;;;;;;;45.60;23.50;;;;;;;-0.50;77.18;98731.92;207603;1317;141499;-72
2022/01/31 19:29:39;;;;;;;38.30;20.90;;;;;;;-0.65;76.91;98739.02;207608;1316;141759;-73
2022/01/31 19:34:41;;;;;;;26.40;15.60;;;;;;;-0.74;77.43;98739.32;207242;1315;139006;-68
2022/01/31 19:44:54;;;;;;;59.00;32.00;;;;;;;-0.77;77.63;98753.06;209077;1316;139727;-73
2022/01/31 19:49:59;;;;;;;63.70;34.40;;;;;;;-0.78;77.70;98761.42;209320;1316;141203;-73
2022/01/31 19:55:03;;;;;;;57.80;27.50;;;;;;;-0.85;77.47;98763.88;208843;1316;139971;-72
2022/01/31 20:00:15;;;;;;;42.10;24.90;;;;;;;-0.93;77.62;98769.51;208122;1315;139624;-72
2022/01/31 20:05:17;;;;;;;41.60;19.10;;;;;;;-0.98;77.59;98778.16;208939;1317;141080;-74
2022/01/31 20:10:22;;;;;;;40.00;20.50;;;;;;;-1.01;77.20;98782.34;207682;1317;140164;-69
2022/01/31 20:15:25;;;;;;;51.10;22.50;;;;;;;-1.06;77.33;98780.88;207883;1314;140454;-74
2022/01/31 20:20:29;;;;;;;37.90;19.60;;;;;;;-1.17;77.38;98786.14;208891;1314;139371;-75
2022/01/31 20:25:31;;;;;;;42.10;20.50;;;;;;;-1.25;77.37;98797.98;206752;1317;140346;-73
2022/01/31 20:30:36;;;;;;;48.90;22.90;;;;;;;-1.34;77.49;98796.52;208103;1317;139162;-72
2022/01/31 20:35:39;;;;;;;42.40;20.40;;;;;;;-1.36;77.59;98797.32;208711;1317;150468;-72
2022/01/31 20:41:10;;;;;;;40.90;23.10;;;;;;;-1.38;77.64;98804.17;207140;1317;140307;-71
2022/01/31 20:46:17;;;;;;;40.70;24.40;;;;;;;-1.44;77.91;98820.34;206799;1317;140737;-70
2022/01/31 20:51:21;;;;;;;45.20;23.50;;;;;;;-1.51;77.90;98831.49;206877;1317;140359;-72
2022/01/31 20:56:27;;;;;;;44.90;19.80;;;;;;;-1.61;78.00;98837.23;206031;1317;1277302;-71
2022/01/31 21:01:35;;;;;;;47.90;22.40;;;;;;;-1.65;77.82;98839.01;206956;1316;139761;-71
2022/01/31 21:06:39;;;;;;;36.90;23.40;;;;;;;-1.69;78.01;98843.61;207821;1316;139687;-72
2022/01/31 21:11:44;;;;;;;46.70;23.00;;;;;;;-1.75;78.12;98845.29;206736;1317;140087;-68
2022/01/31 21:17:02;;;;;;;46.80;22.70;;;;;;;-1.85;78.24;98848.42;207318;1317;139793;-70
2022/01/31 21:22:09;;;;;;;50.80;20.70;;;;;;;-1.93;78.35;98848.75;207888;1317;229590;-71
2022/01/31 21:27:13;;;;;;;43.90;23.30;;;;;;;-1.95;78.06;98840.39;206955;1317;140972;-67
2022/01/31 21:32:20;;;;;;;41.00;22.20;;;;;;;-1.96;78.20;98847.61;207170;1317;139363;-71
2022/01/31 21:37:24;;;;;;;52.90;21.70;;;;;;;-1.98;78.34;98858.14;209333;1317;139702;-72
2022/01/31 21:42:26;;;;;;;47.20;23.40;;;;;;;-2.04;78.41;98856.70;208271;1316;140571;-72
2022/01/31 21:47:33;;;;;;;60.90;25.40;;;;;;;-2.05;78.30;98856.78;207772;1315;139961;-69
2022/01/31 21:52:38;;;;;;;44.60;21.90;;;;;;;-2.01;78.31;98863.52;209315;1318;140329;-72
2022/01/31 21:57:45;;;;;;;43.30;22.50;;;;;;;-2.00;78.37;98860.60;209010;1318;140150;-73
2022/01/31 22:02:51;;;;;;;;;;;;;;;-1.99;78.44;98865.55;207914;1316;140388;-73
2022/01/31 22:07:58;;;;;;;57.40;26.90;;;;;;;-2.04;78.57;98868.05;209702;1315;125727;-74
2022/01/31 22:13:05;;;;;;;47.90;23.60;;;;;;;-2.10;78.20;98869.55;208867;1317;140855;-74
2022/01/31 22:18:11;;;;;;;47.70;24.50;;;;;;;-2.09;78.50;98878.52;208306;1317;142089;-73
2022/01/31 22:23:14;;;;;;;52.90;25.30;;;;;;;-2.11;78.29;98879.25;208307;1317;208764;-74
2022/01/31 22:28:18;;;;;;;65.60;28.80;;;;;;;-2.13;78.53;98881.06;207368;1315;139780;-73
2022/01/31 22:33:29;;;;;;;55.80;26.20;;;;;;;-2.16;78.55;98890.58;207705;1316;138992;-73
2022/01/31 22:38:35;;;;;;;56.20;22.90;;;;;;;-2.24;78.40;98897.11;208062;1316;140603;-74
2022/01/31 22:43:39;;;;;;;57.10;25.10;;;;;;;-2.30;78.32;98899.59;208012;1317;140363;-73
2022/01/31 22:48:53;;;;;;;54.90;25.50;;;;;;;-2.33;78.45;98899.14;207387;1317;140110;-71
2022/01/31 22:53:56;;;;;;;50.60;23.70;;;;;;;-2.33;78.47;98899.38;207731;1315;139645;-73
2022/01/31 22:59:19;;;;;;;47.40;22.90;;;;;;;-2.43;78.38;98899.02;207655;1317;139058;-69
2022/01/31 23:04:27;;;;;;;51.10;25.90;;;;;;;-2.53;78.39;98901.78;207581;1317;140479;-70
2022/01/31 23:09:30;;;;;;;55.30;26.50;;;;;;;-2.58;78.41;98902.48;207949;1318;140081;-72
2022/01/31 23:14:43;;;;;;;49.80;23.40;;;;;;;-2.61;78.60;98902.50;207327;1315;139351;-71
2022/01/31 23:19:58;;;;;;;70.10;30.30;;;;;;;-2.65;78.75;98908.84;206935;1316;141014;-70
